createdAt,value
2018-05-29T00:03:47.204Z,96256.22
2018-05-29T00:06:14.836Z,96252.98
2018-05-29T00:08:42.390Z,96249.84
2018-05-29T00:11:09.988Z,96252.09
2018-05-29T00:13:37.671Z,96247.73
2018-05-29T00:16:05.342Z,96240.91
2018-05-29T00:18:32.949Z,96240.73
2018-05-29T00:21:00.558Z,96232.12
2018-05-29T00:23:28.186Z,96230.64
2018-05-29T00:25:55.708Z,96228.48
2018-05-29T00:28:23.316Z,96225.61
2018-05-29T00:30:50.927Z,96222.63
2018-05-29T00:33:18.614Z,96220.55
2018-05-29T00:35:46.305Z,96216.22
2018-05-29T00:38:13.919Z,96213.58
2018-05-29T00:40:41.537Z,96216.33
2018-05-29T00:43:09.202Z,96218.09
2018-05-29T00:45:36.905Z,96215.66
2018-05-29T00:48:04.491Z,96211.20
2018-05-29T00:50:32.181Z,96203.78
2018-05-29T00:52:59.781Z,96213.99
2018-05-29T00:55:39.392Z,96209.81
2018-05-29T00:58:07.162Z,96213.50
2018-05-29T01:00:34.970Z,96211.27
2018-05-29T01:03:06.401Z,96219.08
2018-05-29T01:05:34.147Z,96212.49
2018-05-29T01:08:01.774Z,96211.75
2018-05-29T01:10:29.459Z,96213.80
2018-05-29T01:12:57.272Z,96218.59
2018-05-29T01:15:24.892Z,96218.52
2018-05-29T01:17:52.412Z,96216.05
2018-05-29T01:20:20.081Z,96213.44
2018-05-29T01:22:47.659Z,96209.30
2018-05-29T01:25:16.087Z,96204.83
2018-05-29T01:27:43.696Z,96203.14
2018-05-29T01:30:11.339Z,96200.15
2018-05-29T01:32:39.349Z,96204.80
2018-05-29T01:35:07.218Z,96199.15
2018-05-29T01:37:34.896Z,96199.97
2018-05-29T01:40:02.544Z,96200.36
2018-05-29T01:42:30.142Z,96202.63
2018-05-29T01:44:57.795Z,96198.55
2018-05-29T01:47:25.410Z,96192.32
2018-05-29T01:49:52.975Z,96184.10
2018-05-29T01:52:41.851Z,96180.28
2018-05-29T01:55:09.784Z,96183.99
2018-05-29T01:57:37.399Z,96182.94
2018-05-29T02:00:04.916Z,96177.06
2018-05-29T02:02:34.630Z,96173.41
2018-05-29T02:05:02.304Z,96170.25
2018-05-29T02:07:30.233Z,96170.53
2018-05-29T02:09:57.801Z,96163.98
2018-05-29T02:12:25.396Z,96164.81
2018-05-29T02:14:53.061Z,96166.40
2018-05-29T02:17:20.604Z,96165.09
2018-05-29T02:19:48.116Z,96156.45
2018-05-29T02:22:15.731Z,96162.14
2018-05-29T02:24:43.365Z,96164.26
2018-05-29T02:27:11.911Z,96161.55
2018-05-29T02:29:39.549Z,96160.37
2018-05-29T02:32:07.162Z,96154.27
2018-05-29T02:34:34.815Z,96156.93
2018-05-29T02:39:39.433Z,96147.13
2018-05-29T02:42:07.120Z,96138.44
2018-05-29T02:44:34.716Z,96134.77
2018-05-29T02:47:02.637Z,96140.63
2018-05-29T02:49:30.676Z,96137.03
2018-05-29T02:51:58.537Z,96144.20
2018-05-29T02:54:26.054Z,96140.12
2018-05-29T02:56:53.613Z,96135.59
2018-05-29T02:59:21.621Z,96137.73
2018-05-29T03:01:49.261Z,96139.03
2018-05-29T03:04:16.789Z,96139.55
2018-05-29T03:09:18.532Z,96154.28
2018-05-29T03:11:46.131Z,96155.02
2018-05-29T03:14:13.789Z,96158.31
2018-05-29T03:16:41.369Z,96157.02
2018-05-29T03:19:08.907Z,96157.44
2018-05-29T03:21:36.498Z,96158.39
2018-05-29T03:24:04.056Z,96155.37
2018-05-29T03:26:31.655Z,96159.32
2018-05-29T03:28:59.189Z,96166.34
2018-05-29T03:31:26.717Z,96171.86
2018-05-29T03:33:54.259Z,96164.72
2018-05-29T03:36:21.856Z,96161.59
2018-05-29T03:38:49.436Z,96156.19
2018-05-29T03:41:17.075Z,96160.30
2018-05-29T03:43:44.660Z,96168.92
2018-05-29T03:46:12.277Z,96165.31
2018-05-29T03:48:43.617Z,96158.41
2018-05-29T03:51:11.225Z,96154.80
2018-05-29T03:53:42.373Z,96153.36
2018-05-29T03:56:09.899Z,96150.77
2018-05-29T03:58:37.443Z,96149.02
2018-05-29T04:01:04.976Z,96146.19
2018-05-29T04:03:32.504Z,96147.89
2018-05-29T04:06:00.062Z,96142.49
2018-05-29T04:08:27.583Z,96142.86
2018-05-29T04:10:55.107Z,96136.94
2018-05-29T04:13:22.835Z,96139.19
2018-05-29T04:15:50.449Z,96142.09
2018-05-29T04:18:18.055Z,96139.84
2018-05-29T04:20:45.601Z,96144.09
2018-05-29T04:23:13.135Z,96130.46
2018-05-29T04:25:40.673Z,96139.84
2018-05-29T04:28:08.252Z,96140.88
2018-05-29T04:30:35.879Z,96143.01
2018-05-29T04:33:03.522Z,96140.03
2018-05-29T04:35:31.785Z,96137.52
2018-05-29T04:37:59.359Z,96136.27
2018-05-29T04:40:26.987Z,96135.88
2018-05-29T04:42:54.657Z,96140.14
2018-05-29T04:45:22.353Z,96138.05
2018-05-29T04:47:50.002Z,96143.16
2018-05-29T04:50:17.601Z,96146.20
2018-05-29T04:52:45.243Z,96147.23
2018-05-29T04:55:12.854Z,96133.94
2018-05-29T04:57:40.515Z,96146.11
2018-05-29T05:00:08.067Z,96151.92
2018-05-29T05:02:35.644Z,96145.28
2018-05-29T05:05:03.169Z,96145.42
2018-05-29T05:07:30.687Z,96147.62
2018-05-29T05:09:58.257Z,96145.44
2018-05-29T05:12:25.818Z,96146.57
2018-05-29T05:17:27.064Z,96141.03
2018-05-29T05:19:54.689Z,96134.75
2018-05-29T05:22:22.201Z,96129.84
2018-05-29T05:24:49.764Z,96132.03
2018-05-29T05:27:17.363Z,96130.06
2018-05-29T05:29:44.971Z,96131.17
2018-05-29T05:32:12.617Z,96131.62
2018-05-29T05:34:40.271Z,96133.77
2018-05-29T05:37:07.985Z,96128.20
2018-05-29T05:39:35.589Z,96132.73
2018-05-29T05:42:03.196Z,96122.91
2018-05-29T05:44:30.713Z,96127.69
2018-05-29T05:46:58.272Z,96127.77
2018-05-29T05:49:25.819Z,96122.19
2018-05-29T05:51:53.388Z,96117.92
2018-05-29T05:54:20.941Z,96124.52
2018-05-29T05:56:48.489Z,96127.91
2018-05-29T05:59:16.027Z,96126.99
2018-05-29T06:01:43.543Z,96125.39
2018-05-29T06:04:11.096Z,96120.16
2018-05-29T06:06:38.631Z,96119.83
2018-05-29T06:09:06.266Z,96120.74
2018-05-29T06:11:33.901Z,96117.59
2018-05-29T06:14:01.530Z,96119.38
2018-05-29T06:16:29.172Z,96119.55
2018-05-29T06:18:56.837Z,96118.48
2018-05-29T06:21:24.508Z,96116.75
2018-05-29T06:23:52.150Z,96114.55
2018-05-29T06:26:19.792Z,96108.13
2018-05-29T06:28:47.499Z,96100.13
2018-05-29T06:31:15.130Z,96110.30
2018-05-29T06:33:42.661Z,96108.28
2018-05-29T06:36:10.183Z,96102.97
2018-05-29T06:38:37.741Z,96108.98
2018-05-29T06:41:05.248Z,96109.78
2018-05-29T06:43:32.930Z,96114.35
2018-05-29T06:46:00.569Z,96107.55
2018-05-29T06:48:28.184Z,96106.03
2018-05-29T06:50:55.870Z,96101.50
2018-05-29T06:53:23.488Z,96110.41
2018-05-29T06:55:51.111Z,96110.64
2018-05-29T06:58:18.649Z,96105.61
2018-05-29T07:00:46.239Z,96106.09
2018-05-29T07:03:14.881Z,96104.16
2018-05-29T07:05:43.116Z,96098.88
2018-05-29T07:08:10.762Z,96102.23
2018-05-29T07:10:38.399Z,96092.88
2018-05-29T07:13:06.088Z,96093.06
2018-05-29T07:15:33.747Z,96090.02
2018-05-29T07:18:01.943Z,96099.05
2018-05-29T07:20:29.537Z,96100.93
2018-05-29T07:22:57.146Z,96096.04
2018-05-29T07:25:24.696Z,96091.95
2018-05-29T07:27:52.448Z,96103.15
2018-05-29T07:30:25.511Z,96100.55
2018-05-29T07:32:55.275Z,96097.11
2018-05-29T07:35:23.018Z,96088.54
2018-05-29T07:37:51.718Z,96080.16
2018-05-29T07:40:21.863Z,96084.37
2018-05-29T07:42:49.429Z,96081.70
2018-05-29T07:45:18.055Z,96087.00
2018-05-29T07:47:47.021Z,96087.34
2018-05-29T07:50:14.889Z,96087.67
2018-05-29T07:52:43.018Z,96088.91
2018-05-29T07:55:11.571Z,96096.98
2018-05-29T07:57:39.244Z,96091.64
2018-05-29T08:00:10.839Z,96089.19
2018-05-29T08:02:42.073Z,96090.42
2018-05-29T08:05:10.418Z,96086.01
2018-05-29T08:07:38.237Z,96091.77
2018-05-29T08:10:07.061Z,96086.55
2018-05-29T08:12:35.631Z,96088.80
2018-05-29T08:15:04.555Z,96085.51
2018-05-29T08:17:35.502Z,96082.98
2018-05-29T08:20:04.251Z,96095.55
2018-05-29T08:22:34.205Z,96086.77
2018-05-29T08:25:02.592Z,96090.73
2018-05-29T08:27:30.848Z,96086.92
2018-05-29T08:30:08.601Z,96084.76
2018-05-29T08:32:37.890Z,96087.05
2018-05-29T08:35:05.549Z,96095.29
2018-05-29T08:40:14.593Z,96093.51
2018-05-29T08:47:49.887Z,96085.73
2018-05-29T08:50:20.791Z,96082.95
2018-05-29T08:52:49.437Z,96078.15
2018-05-29T08:55:24.001Z,96075.32
2018-05-29T08:57:52.283Z,96080.23
2018-05-29T09:00:20.650Z,96073.20
2018-05-29T09:02:57.233Z,96075.13
2018-05-29T09:05:25.813Z,96077.02
2018-05-29T09:07:54.433Z,96073.09
2018-05-29T09:10:28.575Z,96076.66
2018-05-29T09:12:58.224Z,96072.96
2018-05-29T09:15:49.012Z,96075.53
2018-05-29T09:20:58.286Z,96064.12
2018-05-29T09:23:31.849Z,96066.17
2018-05-29T09:28:50.366Z,96056.23
2018-05-29T09:31:22.368Z,96080.06
2018-05-29T09:33:56.895Z,96086.58
2018-05-29T09:36:24.588Z,96062.64
2018-05-29T09:38:53.689Z,96060.72
2018-05-29T09:41:28.981Z,96054.37
2018-05-29T09:43:59.799Z,96050.12
2018-05-29T09:46:31.701Z,96048.00
2018-05-29T09:49:00.461Z,96038.11
2018-05-29T10:05:31.290Z,96042.31
2018-05-29T10:08:09.554Z,96032.47
2018-05-29T10:13:29.301Z,96024.12
2018-05-29T10:16:11.155Z,96026.44
2018-05-29T10:19:15.130Z,96037.44
2018-05-29T10:22:05.242Z,96019.09
2018-05-29T10:24:38.075Z,96026.28
2018-05-29T10:27:07.867Z,96024.20
2018-05-29T10:29:35.533Z,96024.31
2018-05-29T10:32:04.338Z,96024.07
2018-05-29T10:34:39.128Z,96000.21
2018-05-29T10:37:22.297Z,96010.83
2018-05-29T10:39:51.176Z,96002.97
2018-05-29T10:42:19.584Z,96004.78
2018-05-29T10:44:49.502Z,96005.48
2018-05-29T10:47:29.962Z,96003.09
2018-05-29T10:49:58.441Z,96000.24
2018-05-29T10:52:27.853Z,96000.27
2018-05-29T10:55:00.720Z,95994.59
2018-05-29T10:57:29.440Z,96002.06
2018-05-29T11:00:05.145Z,96000.61
2018-05-29T11:08:15.555Z,96002.06
2018-05-29T11:13:33.137Z,95990.00
2018-05-29T11:16:03.241Z,95991.44
2018-05-29T11:21:40.824Z,95992.08
2018-05-29T11:24:10.204Z,95987.34
2018-05-29T11:26:45.292Z,95983.77
2018-05-29T11:29:14.370Z,95979.22
2018-05-29T11:31:54.583Z,95971.06
2018-05-29T11:34:26.699Z,95967.69
2018-05-29T11:39:49.430Z,95964.77
2018-05-29T11:42:30.477Z,95964.56
2018-05-29T11:45:20.537Z,95952.41
2018-05-29T11:47:50.113Z,95953.70
2018-05-29T11:50:20.713Z,95947.84
2018-05-29T11:52:49.735Z,95952.02
2018-05-29T11:55:23.072Z,95936.84
2018-05-29T11:57:52.832Z,95935.70
2018-05-29T12:00:29.296Z,95937.43
2018-05-29T12:03:03.147Z,95934.22
2018-05-29T12:05:54.677Z,95937.38
2018-05-29T12:08:36.092Z,95933.66
2018-05-29T12:11:12.746Z,95928.33
2018-05-29T12:13:45.118Z,95914.30
2018-05-29T12:16:22.977Z,95929.45
2018-05-29T12:18:51.244Z,95924.20
2018-05-29T12:26:11.608Z,95926.55
2018-05-29T12:28:47.559Z,95851.91
2018-05-29T12:31:33.418Z,95923.55
2018-05-29T12:48:35.377Z,95913.69
2018-05-29T12:51:09.462Z,95918.88
2018-05-29T13:09:12.955Z,95900.27
2018-05-29T13:11:51.604Z,95908.22
2018-05-29T13:14:50.211Z,95901.33
2018-05-29T13:20:44.092Z,95898.49
2018-05-29T14:35:35.284Z,95912.51
2018-05-29T14:38:12.948Z,95911.34
2018-05-29T14:40:53.727Z,95910.88
2018-05-29T14:46:49.465Z,95914.30
2018-05-29T14:49:17.211Z,95909.70
2018-05-29T14:51:45.526Z,95916.05
2018-05-29T14:54:14.977Z,95907.31
2018-05-29T14:56:57.377Z,95902.83
2018-05-29T15:02:26.292Z,95896.36
2018-05-29T15:09:49.063Z,95883.50
2018-05-29T15:14:59.500Z,95877.42
2018-05-29T15:20:27.803Z,95882.99
2018-05-29T15:23:05.216Z,95881.15
2018-05-29T15:25:33.627Z,95877.98
2018-05-29T15:28:02.227Z,95884.66
2018-05-29T15:30:36.697Z,95875.59
2018-05-29T15:33:16.101Z,95877.48
2018-05-29T15:35:54.458Z,95883.28
2018-05-29T15:38:24.625Z,95880.96
2018-05-29T15:41:13.574Z,95876.84
2018-05-29T15:47:05.474Z,95871.11
2018-05-29T15:49:47.085Z,95869.96
2018-05-29T15:52:24.381Z,95869.92
2018-05-29T15:54:55.730Z,95864.54
2018-05-29T16:00:45.756Z,95870.02
2018-05-29T16:03:35.944Z,95862.64
2018-05-29T16:06:05.820Z,95860.56
2018-05-29T16:22:35.071Z,95855.50
2018-05-29T16:25:11.048Z,95862.45
2018-05-29T16:27:43.843Z,95865.81
2018-05-29T16:30:20.891Z,95871.38
2018-05-29T16:32:49.002Z,95870.39
2018-05-29T16:38:04.310Z,95872.27
2018-05-29T16:40:33.512Z,95870.13
2018-05-29T16:43:13.686Z,95876.66
2018-05-29T16:46:01.328Z,95880.89
2018-05-29T16:48:29.108Z,95882.70
2018-05-29T16:51:00.031Z,95884.02
2018-05-29T16:53:35.727Z,95868.22
2018-05-29T16:56:03.653Z,95880.15
2018-05-29T16:58:33.331Z,95883.85
2018-05-29T17:01:05.994Z,95881.48
2018-05-29T17:03:37.952Z,95871.66
2018-05-29T17:06:06.603Z,95861.60
2018-05-29T17:08:36.212Z,95864.63
2018-05-29T17:11:04.093Z,95851.50
2018-05-29T17:13:32.526Z,95857.09
2018-05-29T17:16:00.294Z,95862.22
2018-05-29T17:18:28.379Z,95867.27
2018-05-29T17:20:59.578Z,95868.78
2018-05-29T17:23:27.312Z,95871.65
2018-05-29T17:25:54.981Z,95870.75
2018-05-29T17:28:23.041Z,95871.22
2018-05-29T17:30:50.631Z,95869.33
2018-05-29T17:33:19.504Z,95869.87
2018-05-29T17:35:47.142Z,95866.00
2018-05-29T17:38:14.964Z,95865.64
2018-05-29T17:40:42.963Z,95859.73
2018-05-29T17:43:12.174Z,95867.22
2018-05-29T17:45:39.852Z,95867.89
2018-05-29T17:48:07.536Z,95875.25
2018-05-29T17:50:36.230Z,95866.77
2018-05-29T17:53:03.905Z,95868.25
2018-05-29T17:55:31.596Z,95867.00
2018-05-29T17:58:00.036Z,95867.64
2018-05-29T18:00:28.553Z,95871.94
2018-05-29T18:02:57.128Z,95861.78
2018-05-29T18:05:33.460Z,95870.59
2018-05-29T18:08:01.246Z,95872.34
2018-05-29T18:10:29.995Z,95871.48
2018-05-29T18:12:57.741Z,95872.52
2018-05-29T18:15:25.553Z,95872.97
2018-05-29T18:17:53.252Z,95871.00
2018-05-29T18:20:20.896Z,95869.94
2018-05-29T18:22:48.831Z,95871.48
2018-05-29T18:25:17.455Z,95879.76
2018-05-29T18:27:45.441Z,95873.52
2018-05-29T18:30:13.109Z,95878.30
2018-05-29T18:32:40.948Z,95870.81
2018-05-29T18:35:08.618Z,95869.37
2018-05-29T18:37:36.255Z,95869.55
2018-05-29T18:40:04.015Z,95858.91
2018-05-29T18:42:32.297Z,95867.27
2018-05-29T18:44:59.979Z,95870.22
2018-05-29T18:47:27.906Z,95869.42
2018-05-29T18:49:56.639Z,95866.77
2018-05-29T18:52:24.389Z,95869.74
2018-05-29T18:54:53.071Z,95867.85
2018-05-29T18:57:20.740Z,95873.26
2018-05-29T18:59:48.457Z,95869.00
2018-05-29T19:02:16.193Z,95869.72
2018-05-29T19:04:44.774Z,95872.44
2018-05-29T19:07:12.586Z,95876.20
2018-05-29T19:09:40.201Z,95874.11
2018-05-29T19:12:07.961Z,95878.14
2018-05-29T19:14:35.885Z,95877.70
2018-05-29T19:17:03.738Z,95881.62
2018-05-29T19:19:31.436Z,95885.09
2018-05-29T19:21:59.058Z,95890.25
2018-05-29T19:24:26.786Z,95894.25
2018-05-29T19:26:54.418Z,95888.82
2018-05-29T19:29:22.097Z,95889.98
2018-05-29T19:31:50.220Z,95896.14
2018-05-29T19:34:17.990Z,95897.83
2018-05-29T19:36:45.677Z,95897.98
2018-05-29T19:39:13.344Z,95908.31
2018-05-29T19:41:41.049Z,95908.22
2018-05-29T19:44:08.778Z,95912.25
2018-05-29T19:46:36.916Z,95918.30
2018-05-29T19:49:04.569Z,95916.59
2018-05-29T19:51:32.488Z,95926.30
2018-05-29T19:54:00.193Z,95920.67
2018-05-29T19:56:27.823Z,95929.97
2018-05-29T19:58:55.668Z,95928.12
2018-05-29T20:01:23.389Z,95927.58
2018-05-29T20:03:51.025Z,95935.91
2018-05-29T20:06:18.665Z,95933.95
2018-05-29T20:08:46.213Z,95929.56
2018-05-29T20:11:14.365Z,95950.06
2018-05-29T20:13:42.128Z,95947.02
2018-05-29T20:16:09.754Z,95944.92
2018-05-29T20:18:37.493Z,95946.30
2018-05-29T20:21:05.132Z,95952.03
2018-05-29T20:23:32.818Z,95950.62
2018-05-29T20:26:00.434Z,95957.80
2018-05-29T20:28:28.289Z,95956.31
2018-05-29T20:30:56.110Z,95946.36
2018-05-29T20:33:23.797Z,95944.97
2018-05-29T20:35:51.490Z,95945.48
2018-05-29T20:38:19.144Z,95940.57
2018-05-29T20:40:46.745Z,95949.61
2018-05-29T20:43:14.390Z,95953.95
2018-05-29T20:45:42.103Z,95944.72
2018-05-29T20:48:09.815Z,95939.87
2018-05-29T20:50:37.497Z,95934.20
2018-05-29T20:53:05.128Z,95933.39
2018-05-29T20:55:32.746Z,95939.44
2018-05-29T20:58:00.412Z,95931.83
2018-05-29T21:00:28.744Z,95935.43
2018-05-29T21:02:56.444Z,95920.94
2018-05-29T21:05:24.093Z,95931.72
2018-05-29T21:07:51.759Z,95935.72
2018-05-29T21:10:19.327Z,95933.45
2018-05-29T21:12:46.879Z,95926.99
2018-05-29T21:15:14.559Z,95929.61
2018-05-29T21:17:42.236Z,95929.78
2018-05-29T21:20:10.100Z,95921.05
2018-05-29T21:22:37.728Z,95918.81
2018-05-29T21:25:05.497Z,95910.19
2018-05-29T21:27:33.160Z,95906.36
2018-05-29T21:30:01.948Z,95908.08
2018-05-29T21:32:29.717Z,95918.51
2018-05-29T21:34:57.375Z,95922.14
2018-05-29T21:37:25.128Z,95913.40
2018-05-29T21:39:53.227Z,95908.87
2018-05-29T21:42:21.977Z,95903.81
2018-05-29T21:44:49.666Z,95899.28
2018-05-29T21:47:18.612Z,95900.58
2018-05-29T21:49:46.329Z,95889.34
2018-05-29T21:52:14.039Z,95889.22
2018-05-29T21:54:41.685Z,95886.69
2018-05-29T21:57:09.710Z,95890.77
2018-05-29T21:59:38.458Z,95897.70
2018-05-29T22:02:06.201Z,95902.61
2018-05-29T22:04:33.974Z,95892.36
2018-05-29T22:07:01.633Z,95886.84
2018-05-29T22:09:29.546Z,95886.73
2018-05-29T22:11:57.266Z,95881.30
2018-05-29T22:14:25.078Z,95881.30
2018-05-29T22:16:52.691Z,95873.16
2018-05-29T22:19:22.178Z,95868.50
2018-05-29T22:21:49.879Z,95867.98
2018-05-29T22:24:17.492Z,95871.47
2018-05-29T22:26:45.330Z,95876.63
2018-05-29T22:29:13.105Z,95881.95
2018-05-29T22:31:41.216Z,95884.01
2018-05-29T22:34:08.953Z,95883.34
2018-05-29T22:36:36.512Z,95874.12
2018-05-29T22:39:04.361Z,95876.87
2018-05-29T22:41:32.472Z,95886.16
2018-05-29T22:44:00.207Z,95884.40
2018-05-29T22:46:27.936Z,95886.09
2018-05-29T22:48:55.576Z,95886.59
2018-05-29T22:51:23.286Z,95882.67
2018-05-29T22:53:51.305Z,95880.34
2018-05-29T22:56:18.880Z,95874.69
2018-05-29T22:58:46.450Z,95881.20
2018-05-29T23:01:14.057Z,95882.91
2018-05-29T23:03:41.674Z,95880.48
2018-05-29T23:06:09.254Z,95884.64
2018-05-29T23:08:36.971Z,95885.52
2018-05-29T23:11:04.853Z,95890.31
2018-05-29T23:13:32.625Z,95887.23
2018-05-29T23:16:00.328Z,95884.92
2018-05-29T23:18:28.854Z,95880.78
2018-05-29T23:20:56.496Z,95884.64
2018-05-29T23:23:25.210Z,95886.04
2018-05-29T23:25:52.884Z,95893.19
2018-05-29T23:28:20.571Z,95889.06
2018-05-29T23:30:48.228Z,95887.81
2018-05-29T23:33:16.142Z,95885.73
2018-05-29T23:35:44.710Z,95886.30
2018-05-29T23:38:12.341Z,95890.53
2018-05-29T23:40:40.013Z,95883.64
2018-05-29T23:43:08.535Z,95882.52
2018-05-29T23:45:36.252Z,95877.04
2018-05-29T23:48:04.296Z,95876.63
2018-05-29T23:50:31.979Z,95875.55
2018-05-29T23:52:59.564Z,95874.38
2018-05-29T23:55:27.174Z,95876.71
2018-05-29T23:57:54.861Z,95878.22
